Time;durP1;ratioP1;P1;durP2;ratioP2;P2;SDS_P1;SDS_P2;PMS_P1;PMS_P2;Temp;Humidity;BMP_temperature;BMP_pressure;BME280_temperature;BME280_humidity;BME280_pressure;Samples;Min_cycle;Max_cycle;Signal;HPM_P1;HPM_P2
2022/02/27 00:01:48;;;;;;;;;;;-0.40;99.90;;;-2.52;100.00;102892.22;2568561;30;136942;-40
2022/02/27 00:04:15;;;;;;;;;;;-0.50;99.90;;;-2.56;100.00;102890.66;2568587;30;137616;-40
2022/02/27 00:06:43;;;;;;;;;;;-0.50;99.90;;;-2.61;100.00;102882.00;2568159;30;137108;-40
2022/02/27 00:09:10;;;;;;;;;;;-0.60;99.90;;;-2.64;100.00;102882.16;2568533;30;138338;-40
2022/02/27 00:11:38;;;;;;;;;;;-0.60;99.90;;;-2.66;100.00;102876.88;2567709;30;137244;-40
2022/02/27 00:14:05;;;;;;;;;;;-0.60;99.90;;;-2.66;100.00;102878.66;2568207;30;138299;-40
2022/02/27 00:16:33;;;;;;;;;;;-0.70;99.90;;;-2.71;100.00;102870.88;2567219;30;137400;-40
2022/02/27 00:19:02;;;;;;;;;;;-0.70;99.90;;;-2.79;100.00;102867.69;2568668;30;138391;-40
2022/02/27 00:21:29;;;;;;;;;;;-0.70;99.90;;;-2.77;100.00;102874.72;2567798;30;136840;-40
2022/02/27 00:23:56;;;;;;;;;;;-0.80;99.90;;;-2.81;100.00;102875.81;2568585;30;139509;-41
2022/02/27 00:26:24;;;;;;;;;;;-0.80;99.90;;;-2.80;100.00;102873.97;2569353;30;137279;-40
2022/02/27 00:28:51;;;;;;;;;;;-0.80;99.90;;;-2.85;100.00;102868.88;2568321;30;136844;-40
2022/02/27 00:31:19;;;;;;;;;;;-0.80;99.90;;;-2.91;100.00;102871.84;2567247;30;137241;-40
2022/02/27 00:33:46;;;;;;;;;;;-0.90;99.90;;;-2.95;100.00;102867.56;2566969;30;139147;-40
2022/02/27 00:36:14;;;;;;;;;;;-0.90;99.90;;;-2.89;100.00;102872.66;2567516;30;138966;-40
2022/02/27 00:38:41;;;;;;;;;;;-0.90;99.90;;;-2.95;100.00;102867.56;2567421;30;137216;-40
2022/02/27 00:41:10;;;;;;;;;;;-0.90;99.90;;;-2.95;100.00;102870.25;2567625;30;136819;-40
2022/02/27 00:43:38;;;;;;;;;;;-0.90;99.90;;;-3.00;100.00;102866.94;2567686;30;138451;-40
2022/02/27 00:46:06;;;;;;;;;;;-1.00;99.90;;;-2.96;100.00;102860.50;2568145;30;137198;-40
2022/02/27 00:48:37;;;;;;;;;;;-1.00;99.90;;;-2.98;100.00;102863.25;2568047;30;139736;-40
2022/02/27 00:51:04;;;;;;;;;;;-1.00;99.90;;;-3.00;100.00;102858.91;2567511;30;137349;-40
2022/02/27 00:53:32;;;;;;;;;;;-1.00;99.90;;;-3.16;100.00;102845.44;2574461;30;138202;-38
2022/02/27 00:56:00;;;;;;;;;;;-1.00;99.90;;;-3.08;100.00;102856.59;2568879;30;137107;-41
2022/02/27 06:56:16;;;;;;;;;;;-1.10;99.90;;;-4.10;100.00;102763.41;2568399;30;137279;-40
2022/02/27 06:58:44;;;;;;;;;;;-1.70;99.90;;;-3.72;100.00;102835.50;2566916;30;137052;-40
2022/02/27 07:01:12;;;;;;;;;;;-1.80;99.90;;;-3.69;100.00;102839.84;2569649;30;138210;-39
2022/02/27 07:03:39;;;;;;;;;;;-1.70;99.90;;;-3.60;100.00;102839.41;2567877;30;136796;-40
2022/02/27 07:06:07;;;;;;;;;;;-1.70;99.90;;;-3.56;100.00;102838.34;2567709;30;139151;-40
2022/02/27 07:08:34;;;;;;;;;;;-1.60;99.90;;;-3.50;100.00;102838.06;2568911;30;136908;-40
2022/02/27 07:11:02;;;;;;;;;;;-1.60;99.90;;;-3.36;100.00;102832.09;2566161;30;138019;-40
2022/02/27 07:13:30;;;;;;;;;;;-1.50;99.90;;;-3.25;100.00;102838.72;2568094;30;136791;-40
2022/02/27 07:15:58;;;;;;;;;;;-1.40;99.90;;;-3.17;100.00;102839.25;2567254;30;137694;-40
2022/02/27 07:18:25;;;;;;;;;;;-1.30;99.90;;;-2.91;100.00;102843.31;2568408;30;137390;-40
2022/02/27 07:20:53;;;;;;;;;;;-1.20;99.90;;;-2.75;100.00;102847.94;2567542;30;137478;-40
2022/02/27 07:23:20;;;;;;;;;;;-1.00;99.90;;;-2.67;100.00;102842.19;2568783;30;137920;-40
2022/02/27 07:25:48;;;;;;;;;;;-0.90;99.90;;;-2.49;100.00;102833.25;2568657;30;138549;-40
2022/02/27 07:28:17;;;;;;;;;;;-0.70;99.90;;;-2.43;100.00;102829.41;2568779;30;136958;-40
2022/02/27 07:30:45;;;;;;;;;;;-0.60;99.90;;;-2.36;100.00;102827.31;2568943;30;138268;-40
2022/02/27 07:33:12;;;;;;;;;;;-0.60;99.90;;;-2.25;100.00;102827.59;2568436;30;137143;-41
2022/02/27 07:35:40;;;;;;;;;;;-0.50;99.90;;;-2.09;100.00;102832.19;2567578;30;138417;-40
2022/02/27 07:38:07;;;;;;;;;;;-0.40;99.90;;;-1.88;100.00;102833.69;2568740;30;136830;-40
2022/02/27 07:40:34;;;;;;;;;;;-0.20;99.90;;;-1.68;100.00;102831.78;2567146;30;137465;-41
2022/02/27 07:43:02;;;;;;;;;;;0.00;99.90;;;-1.52;100.00;102839.00;2568187;30;136798;-40
2022/02/27 07:45:29;;;;;;;;;;;0.20;99.90;;;-1.32;100.00;102841.44;2566411;30;138719;-40
2022/02/27 07:47:57;;;;;;;;;;;0.30;99.90;;;-1.15;100.00;102834.25;2569838;30;136742;-40
2022/02/27 07:50:24;;;;;;;;;;;0.50;99.90;;;-0.84;100.00;102837.03;2568287;30;136877;-40
2022/02/27 07:52:52;;;;;;;;;;;0.70;99.90;;;-0.51;100.00;102831.53;2565019;30;137718;-40
2022/02/27 07:55:20;;;;;;;;;;;1.00;99.90;;;-0.23;100.00;102837.94;2568662;30;138990;-40
2022/02/27 07:57:48;;;;;;;;;;;1.30;99.90;;;0.06;98.53;102845.19;2567502;30;137217;-40
2022/02/27 08:00:15;;;;;;;;;;;1.60;99.90;;;0.28;97.52;102839.38;2567314;30;138218;-40
2022/02/27 08:02:43;;;;;;;;;;;1.80;99.90;;;0.52;96.10;102846.81;2567965;30;137095;-40
2022/02/27 08:05:11;;;;;;;;;;;2.00;99.90;;;0.74;95.66;102850.84;2568535;30;139213;-40
2022/02/27 08:07:38;;;;;;;;;;;2.20;99.90;;;0.97;93.35;102844.84;2569227;30;136591;-40
2022/02/27 08:10:06;;;;;;;;;;;2.50;99.90;;;1.12;92.24;102844.84;2567626;30;138332;-40
2022/02/27 08:12:33;;;;;;;;;;;2.70;99.90;;;1.31;90.34;102844.47;2566073;30;137123;-40
2022/02/27 08:15:01;;;;;;;;;;;2.90;99.90;;;1.49;90.17;102850.47;2567850;30;139641;-40
2022/02/27 08:17:28;;;;;;;;;;;3.00;99.90;;;1.62;89.77;102839.72;2568022;30;138018;-40
2022/02/27 08:19:56;;;;;;;;;;;3.20;99.90;;;1.75;90.37;102844.31;2566070;30;138284;-40
2022/02/27 08:22:23;;;;;;;;;;;3.30;99.90;;;1.91;88.15;102842.25;2565945;30;136749;-40
2022/02/27 08:24:50;;;;;;;;;;;3.40;99.90;;;2.06;87.96;102848.41;2569593;30;137519;-40
2022/02/27 08:27:18;;;;;;;;;;;3.60;99.90;;;2.18;86.33;102846.69;2569526;30;136620;-40
2022/02/27 08:29:45;;;;;;;;;;;3.80;99.90;;;2.31;85.61;102846.69;2566514;30;137870;-40
2022/02/27 08:32:13;;;;;;;;;;;3.90;99.90;;;2.42;86.08;102846.81;2568571;30;136938;-40
2022/02/27 08:34:40;;;;;;;;;;;4.00;99.90;;;2.53;84.04;102850.56;2566124;30;137185;-40
2022/02/27 08:37:08;;;;;;;;;;;4.10;99.90;;;2.67;85.58;102847.75;2568312;30;138020;-40
2022/02/27 08:39:38;;;;;;;;;;;4.20;99.90;;;2.77;83.77;102852.47;2565736;30;138385;-40
2022/02/27 08:42:05;;;;;;;;;;;4.30;99.90;;;2.85;83.50;102853.66;2567714;30;137044;-40
2022/02/27 08:44:35;;;;;;;;;;;4.40;99.90;;;2.96;83.29;102852.00;2566990;30;139058;-40
2022/02/27 08:47:05;;;;;;;;;;;4.50;99.90;;;3.09;81.20;102850.13;2569037;30;136986;-40
2022/02/27 08:49:35;;;;;;;;;;;4.60;99.90;;;3.13;80.88;102831.88;2567212;30;138747;-40
2022/02/27 08:52:03;;;;;;;;;;;4.70;99.90;;;3.24;82.56;102852.66;2568703;30;137205;-40
2022/02/27 08:54:31;;;;;;;;;;;4.80;99.90;;;3.37;80.02;102847.19;2568277;30;138225;-40
2022/02/27 08:56:58;;;;;;;;;;;4.90;99.90;;;3.44;81.58;102843.06;2567747;30;137241;-40
2022/02/27 08:59:26;;;;;;;;;;;4.90;99.90;;;3.57;79.64;102848.38;2567867;30;137250;-40
2022/02/27 09:01:53;;;;;;;;;;;5.00;99.90;;;3.68;80.83;102843.03;2568670;30;136930;-40
2022/02/27 09:04:21;;;;;;;;;;;5.20;99.90;;;3.78;78.08;102829.72;2567970;30;137038;-40
2022/02/27 09:06:48;;;;;;;;;;;5.30;99.90;;;3.83;76.91;102827.50;2568126;30;137708;-40
2022/02/27 09:09:16;;;;;;;;;;;5.40;99.90;;;3.93;75.67;102827.66;2569417;30;138119;-40
2022/02/27 09:11:45;;;;;;;;;;;5.50;99.90;;;4.05;76.41;102831.25;2568832;30;137193;-40
2022/02/27 09:14:13;;;;;;;;;;;5.60;99.90;;;4.12;74.41;102824.38;2566685;30;138446;-40
2022/02/27 09:16:41;;;;;;;;;;;5.60;99.90;;;4.23;73.92;102830.75;2568060;30;137149;-40
2022/02/27 09:19:08;;;;;;;;;;;5.70;99.90;;;4.31;74.80;102818.38;2568877;30;137273;-40
2022/02/27 09:21:36;;;;;;;;;;;5.80;99.90;;;4.41;73.47;102826.59;2568524;30;137300;-40
2022/02/27 09:24:04;;;;;;;;;;;5.90;99.90;;;4.50;71.97;102835.81;2568411;30;138464;-40
2022/02/27 09:26:31;;;;;;;;;;;6.00;99.90;;;4.56;73.59;102835.31;2566977;30;137066;-40
2022/02/27 09:28:59;;;;;;;;;;;6.10;99.90;;;4.63;74.15;102841.09;2566605;30;139135;-40
2022/02/27 09:31:27;;;;;;;;;;;6.10;99.90;;;4.72;72.98;102837.66;2567993;30;137160;-40
2022/02/27 09:33:55;;;;;;;;;;;6.20;99.90;;;4.81;73.63;102840.63;2567941;30;138288;-40
2022/02/27 09:36:26;;;;;;;;;;;6.30;99.90;;;4.92;71.64;102843.28;2568439;30;137777;-40
2022/02/27 09:38:53;;;;;;;;;;;6.40;99.90;;;5.02;71.73;102836.13;2568165;30;139388;-40
2022/02/27 09:41:21;;;;;;;;;;;6.50;99.90;;;5.09;68.69;102841.91;2567709;30;136713;-40
2022/02/27 09:43:58;;;;;;;;;;;6.60;99.90;;;5.20;68.65;102843.72;2567164;30;137921;-40
2022/02/27 09:46:28;;;;;;;;;;;6.70;99.90;;;5.29;69.50;102848.34;2568359;30;136782;-40
2022/02/27 09:48:55;;;;;;;;;;;6.80;99.90;;;5.43;68.57;102835.53;2567581;30;137352;-40
2022/02/27 09:51:23;;;;;;;;;;;6.90;99.90;;;5.46;67.46;102840.69;2567480;30;137086;-41
2022/02/27 09:53:52;;;;;;;;;;;7.00;99.90;;;5.50;66.75;102838.59;2568822;30;138502;-40
2022/02/27 09:56:20;;;;;;;;;;;7.00;99.90;;;5.63;65.32;102817.59;2568589;30;136977;-40
2022/02/27 09:58:47;;;;;;;;;;;7.10;99.90;;;5.65;63.48;102825.59;2567741;30;138336;-40
2022/02/27 10:01:16;;;;;;;;;;;7.20;99.90;;;5.76;64.47;102828.22;2567318;30;137871;-41
2022/02/27 10:03:45;;;;;;;;;;;7.20;99.90;;;5.77;63.99;102813.69;2568330;30;139038;-40
2022/02/27 10:06:17;;;;;;;;;;;7.30;99.90;;;5.87;65.03;102833.59;2568264;30;137138;-40
2022/02/27 10:08:47;;;;;;;;;;;7.30;99.90;;;6.00;64.44;102829.81;2568389;30;139133;-40
2022/02/27 10:11:20;;;;;;;;;;;7.40;99.90;;;6.10;63.29;102824.50;2567827;30;136971;-40
2022/02/27 10:13:52;;;;;;;;;;;7.50;99.90;;;6.17;61.87;102821.13;2568393;30;138434;-40
2022/02/27 10:16:24;;;;;;;;;;;7.60;99.90;;;6.27;61.91;102833.84;2565852;30;137538;-40
2022/02/27 10:18:59;;;;;;;;;;;7.70;99.90;;;6.27;60.86;102820.31;2567939;30;138962;-40
2022/02/27 10:21:30;;;;;;;;;;;7.80;99.90;;;6.39;59.06;102827.38;2567983;30;138194;-40
2022/02/27 10:24:17;;;;;;;;;;;7.80;99.90;;;6.33;58.63;102825.19;2567579;30;138122;-40
2022/02/27 10:26:48;;;;;;;;;;;7.90;99.90;;;6.35;59.73;102825.91;2567370;30;138353;-40
2022/02/27 10:29:25;;;;;;;;;;;7.90;99.90;;;6.38;60.22;102827.50;2568793;30;138484;-40
2022/02/27 10:31:53;;;;;;;;;;;7.90;99.90;;;6.44;57.84;102819.69;2567889;30;137078;-40
2022/02/27 10:34:27;;;;;;;;;;;7.90;99.90;;;6.53;60.14;102825.28;2567028;30;137462;-40
2022/02/27 10:37:00;;;;;;;;;;;8.00;99.90;;;6.64;58.88;102822.47;2565045;30;137962;-40
2022/02/27 10:39:48;;;;;;;;;;;8.10;99.90;;;6.72;58.54;102825.34;2568677;30;137540;-40
2022/02/27 10:42:20;;;;;;;;;;;8.20;99.90;;;6.80;58.66;102821.94;2568773;30;136723;-40
2022/02/27 10:44:53;;;;;;;;;;;8.30;99.90;;;6.90;56.10;102833.69;2568495;30;137450;-40
2022/02/27 10:47:23;;;;;;;;;;;8.30;99.70;;;7.02;58.61;102819.97;2567959;30;137310;-40
2022/02/27 10:49:56;;;;;;;;;;;8.40;99.90;;;7.12;57.13;102820.88;2568487;30;139239;-40
2022/02/27 10:52:25;;;;;;;;;;;8.50;99.90;;;7.20;57.58;102820.19;2566439;30;137165;-40
2022/02/27 10:54:58;;;;;;;;;;;8.60;99.90;;;7.29;57.18;102816.59;2568791;30;137114;-40
2022/02/27 10:57:29;;;;;;;;;;;8.70;99.90;;;7.36;57.48;102799.72;2570063;30;137832;-40
2022/02/27 11:00:14;;;;;;;;;;;8.80;99.90;;;7.40;57.38;102787.56;2569240;30;137458;-40
2022/02/27 11:02:43;;;;;;;;;;;8.90;99.90;;;7.52;55.35;102797.31;2568570;30;138825;-40
2022/02/27 11:05:13;;;;;;;;;;;8.90;99.10;;;7.57;56.80;102784.16;2569066;30;138252;-40
2022/02/27 11:07:43;;;;;;;;;;;9.00;99.80;;;7.56;56.60;102796.00;2568597;30;137310;-40
2022/02/27 11:10:15;;;;;;;;;;;9.00;99.40;;;7.59;55.81;102792.16;2569186;30;137387;-40
2022/02/27 11:12:42;;;;;;;;;;;9.00;99.40;;;7.58;55.69;102793.16;2569136;30;136840;-41
2022/02/27 11:15:18;;;;;;;;;;;9.00;98.90;;;7.55;55.63;102788.88;2569141;30;138396;-40
2022/02/27 11:17:46;;;;;;;;;;;9.10;98.70;;;7.54;55.44;102776.28;2568802;30;137981;-40
2022/02/27 11:20:16;;;;;;;;;;;9.00;98.40;;;7.60;58.23;102781.13;2569035;30;138556;-40
2022/02/27 11:22:44;;;;;;;;;;;9.10;99.90;;;7.53;55.22;102780.00;2568870;30;136987;-40
2022/02/27 11:25:14;;;;;;;;;;;9.10;98.10;;;7.53;56.58;102782.72;2569290;30;138607;-40
2022/02/27 11:28:01;;;;;;;;;;;9.00;99.00;;;7.59;55.33;102795.72;2567084;30;136859;-40
2022/02/27 11:30:31;;;;;;;;;;;9.10;98.40;;;7.56;55.59;102776.13;2569169;30;138220;-40
2022/02/27 11:33:05;;;;;;;;;;;9.10;98.50;;;7.65;57.16;102779.84;2568948;30;137141;-40
2022/02/27 11:35:37;;;;;;;;;;;9.10;99.60;;;7.80;56.37;102781.13;2567708;30;137451;-40
2022/02/27 11:38:07;;;;;;;;;;;9.20;98.90;;;7.83;55.94;102775.38;2568771;30;136863;-40
2022/02/27 11:40:45;;;;;;;;;;;9.30;98.50;;;7.86;55.22;102780.53;2567965;30;139058;-40
2022/02/27 11:43:18;;;;;;;;;;;9.30;97.70;;;7.92;56.37;102776.38;2568451;30;137009;-40
2022/02/27 11:45:48;;;;;;;;;;;9.40;98.90;;;8.03;56.07;102775.34;2570033;30;137288;-40
2022/02/27 11:48:17;;;;;;;;;;;9.40;99.10;;;8.06;54.45;102781.31;2569393;30;136993;-40
2022/02/27 11:50:52;;;;;;;;;;;9.50;97.70;;;8.11;54.99;102780.88;2569033;30;137501;-40
2022/02/27 11:53:21;;;;;;;;;;;9.60;97.60;;;8.24;54.90;102772.41;2568231;30;137191;-40
2022/02/27 11:55:50;;;;;;;;;;;9.60;98.00;;;8.28;53.84;102776.53;2568332;30;138312;-40
2022/02/27 11:58:27;;;;;;;;;;;9.70;97.10;;;8.38;52.86;102768.31;2568563;30;136713;-40
2022/02/27 12:00:58;;;;;;;;;;;9.80;96.80;;;8.37;49.44;102763.91;2567623;30;137211;-40
2022/02/27 12:03:31;;;;;;;;;;;9.80;93.90;;;8.44;50.10;102766.88;2568877;30;136928;-40
2022/02/27 12:06:05;;;;;;;;;;;9.90;94.10;;;8.52;51.82;102763.44;2568784;30;138153;-40
2022/02/27 12:08:52;;;;;;;;;;;10.00;95.10;;;8.54;48.53;102759.53;2567493;30;137335;-40
2022/02/27 12:11:29;;;;;;;;;;;10.00;93.30;;;8.56;46.86;102759.41;2567959;30;138262;-40
2022/02/27 12:14:05;;;;;;;;;;;10.00;91.10;;;8.64;49.63;102756.78;2568323;30;137982;-40
2022/02/27 12:16:46;;;;;;;;;;;10.10;92.60;;;8.69;48.65;102759.03;2568522;30;138213;-40
2022/02/27 12:19:21;;;;;;;;;;;10.10;92.50;;;8.71;46.08;102749.69;2568609;30;137195;-40
2022/02/27 12:21:56;;;;;;;;;;;10.20;91.50;;;8.71;48.86;102752.41;2567537;30;138167;-40
2022/02/27 12:24:31;;;;;;;;;;;10.20;92.00;;;8.66;48.06;102738.44;2566959;30;137491;-40
2022/02/27 12:27:03;;;;;;;;;;;10.20;91.40;;;8.72;48.84;102734.25;2568088;30;138307;-40
2022/02/27 12:29:36;;;;;;;;;;;10.20;92.00;;;8.74;48.05;102735.78;2569292;30;137027;-40
2022/02/27 12:32:04;;;;;;;;;;;10.20;90.90;;;8.82;47.50;102745.91;2567769;30;137359;-40
2022/02/27 12:34:33;;;;;;;;;;;10.30;90.70;;;8.85;48.99;102739.31;2567819;30;137354;-41
2022/02/27 12:37:01;;;;;;;;;;;10.30;91.50;;;8.89;48.51;102741.59;2567949;30;137446;-40
2022/02/27 12:39:36;;;;;;;;;;;10.30;91.30;;;8.92;49.07;102737.69;2568654;30;137305;-40
2022/02/27 12:42:07;;;;;;;;;;;10.30;91.40;;;8.99;48.41;102746.09;2567555;30;139105;-40
2022/02/27 12:44:40;;;;;;;;;;;10.40;90.90;;;8.97;48.01;102743.50;2569302;30;137558;-40
2022/02/27 12:47:12;;;;;;;;;;;10.50;90.50;;;9.03;47.58;102739.31;2568226;30;138441;-40
2022/02/27 12:52:37;;;;;;;;;;;10.50;90.70;;;9.10;47.34;102745.84;2567812;30;138223;-40
2022/02/27 12:55:08;;;;;;;;;;;10.60;90.00;;;9.03;48.36;102734.75;2573150;30;138105;-40
2022/02/27 12:57:52;;;;;;;;;;;10.60;90.40;;;8.97;49.00;102746.22;2568891;30;138522;-40
2022/02/27 13:00:24;;;;;;;;;;;10.50;90.90;;;8.98;48.38;102738.94;2569607;30;136810;-41
2022/02/27 13:02:54;;;;;;;;;;;10.50;90.80;;;9.01;50.67;102735.91;2570733;30;137366;-40
2022/02/27 13:05:22;;;;;;;;;;;10.50;92.00;;;9.06;48.92;102737.16;2570256;30;137177;-41
2022/02/27 13:07:50;;;;;;;;;;;10.50;91.20;;;9.09;49.76;102737.84;2568859;30;138176;-40
2022/02/27 13:10:20;;;;;;;;;;;10.50;91.50;;;9.09;48.80;102737.84;2570664;30;137244;-41
2022/02/27 13:12:49;;;;;;;;;;;10.50;90.80;;;9.10;47.22;102740.41;2568464;30;139566;-41
2022/02/27 13:15:18;;;;;;;;;;;10.60;89.80;;;9.10;47.83;102739.56;2568383;30;136945;-41
2022/02/27 13:17:47;;;;;;;;;;;10.60;90.30;;;9.18;49.63;102735.06;2570977;30;138360;-41
2022/02/27 13:20:18;;;;;;;;;;;10.60;91.60;;;9.20;48.08;102734.88;2569611;30;137433;-41
2022/02/27 13:22:52;;;;;;;;;;;10.70;90.30;;;9.31;47.11;102729.19;2569243;30;139192;-41
2022/02/27 13:25:20;;;;;;;;;;;10.80;90.00;;;9.32;48.99;102728.19;2567962;30;136898;-41
2022/02/27 13:27:50;;;;;;;;;;;10.80;90.80;;;9.37;49.22;102724.13;2567714;30;137697;-41
2022/02/27 13:30:23;;;;;;;;;;;10.80;91.00;;;9.32;48.44;102717.28;2568162;30;137065;-41
2022/02/27 13:32:53;;;;;;;;;;;10.80;90.20;;;9.34;48.19;102712.53;2570441;30;138099;-41
2022/02/27 13:35:22;;;;;;;;;;;10.80;90.40;;;9.44;49.12;102722.47;2569048;30;137043;-41
2022/02/27 13:37:55;;;;;;;;;;;10.90;90.70;;;9.50;49.20;102719.09;2570570;30;138119;-41
2022/02/27 13:40:35;;;;;;;;;;;10.90;90.70;;;9.54;49.26;102711.47;2569622;30;136862;-39
2022/02/27 13:43:08;;;;;;;;;;;11.00;90.90;;;9.50;47.38;102709.09;2569729;30;138481;-40
2022/02/27 13:45:36;;;;;;;;;;;11.00;89.10;;;9.55;47.57;102716.78;2568895;30;137014;-40
2022/02/27 13:48:10;;;;;;;;;;;11.00;89.40;;;9.56;46.97;102707.59;2569697;30;137982;-41
2022/02/27 13:50:45;;;;;;;;;;;11.00;88.80;;;9.53;48.34;102691.53;2570376;30;137149;-41
2022/02/27 13:53:15;;;;;;;;;;;11.00;90.30;;;9.66;50.02;102687.56;2567995;30;139006;-41
2022/02/27 13:55:46;;;;;;;;;;;11.00;91.50;;;9.76;48.49;102683.69;2568696;30;136895;-41
2022/02/27 13:58:19;;;;;;;;;;;11.10;90.60;;;9.85;49.19;102683.72;2568048;30;138095;-41
2022/02/27 14:01:00;;;;;;;;;;;11.20;91.20;;;9.88;47.73;102673.38;2569612;30;137316;-40
2022/02/27 14:03:37;;;;;;;;;;;11.30;90.40;;;9.84;47.03;102684.75;2570725;30;138390;-40
2022/02/27 14:06:17;;;;;;;;;;;11.20;88.80;;;9.85;46.08;102679.16;2569262;30;137906;-41
2022/02/27 14:09:07;;;;;;;;;;;11.30;89.20;;;9.73;46.86;102674.97;2570557;30;138326;-40
2022/02/27 14:11:35;;;;;;;;;;;11.30;88.80;;;9.57;45.93;102670.28;2569049;30;136797;-41
2022/02/27 14:14:10;;;;;;;;;;;11.10;86.40;;;9.54;47.96;102665.16;2571600;30;139245;-41
2022/02/27 14:16:43;;;;;;;;;;;11.10;89.30;;;9.50;47.20;102659.16;2569366;30;137526;-41
2022/02/27 14:19:20;;;;;;;;;;;11.00;88.00;;;9.45;47.07;102661.53;2571738;30;137262;-39
2022/02/27 14:21:48;;;;;;;;;;;11.00;87.10;;;9.44;50.62;102665.25;2571353;30;136844;-41
2022/02/27 14:24:20;;;;;;;;;;;11.00;91.30;;;9.54;47.98;102660.56;2568984;30;137347;-41
2022/02/27 14:26:59;;;;;;;;;;;11.00;89.10;;;9.53;48.66;102655.28;2570699;30;138219;-41
2022/02/27 14:29:34;;;;;;;;;;;11.00;89.60;;;9.49;49.51;102662.91;2569845;30;138212;-40
2022/02/27 14:32:24;;;;;;;;;;;11.00;90.10;;;9.45;49.72;102661.53;2566378;30;137217;-41
2022/02/27 14:34:54;;;;;;;;;;;10.90;89.40;;;9.55;49.11;102667.75;2569731;30;138586;-41
2022/02/27 14:37:23;;;;;;;;;;;11.00;90.50;;;9.45;47.24;102669.69;2569871;30;136867;-41
2022/02/27 14:40:10;;;;;;;;;;;11.00;88.20;;;9.49;49.04;102662.91;2571706;30;138132;-40
2022/02/27 14:42:40;;;;;;;;;;;10.90;89.60;;;9.39;50.21;102654.00;2570978;30;136826;-41
2022/02/27 14:45:08;;;;;;;;;;;10.90;90.70;;;9.45;50.66;102650.63;2569111;30;137607;-41
2022/02/27 14:47:37;;;;;;;;;;;10.90;91.50;;;9.46;48.03;102652.34;2570148;30;137268;-41
2022/02/27 14:50:05;;;;;;;;;;;10.90;89.30;;;9.52;50.72;102657.13;2569528;30;139073;-41
2022/02/27 14:52:32;;;;;;;;;;;10.90;91.40;;;9.49;48.63;102655.59;2572133;30;136971;-40
2022/02/27 14:55:04;;;;;;;;;;;10.90;90.00;;;9.44;48.81;102652.50;2569547;30;137377;-41
2022/02/27 14:57:35;;;;;;;;;;;10.90;90.00;;;9.33;48.33;102645.47;2570242;30;137193;-41
2022/02/27 15:00:06;;;;;;;;;;;10.90;89.20;;;9.30;49.57;102632.16;2569701;30;137120;-40
2022/02/27 15:02:35;;;;;;;;;;;10.80;90.30;;;9.28;51.95;102644.22;2570105;30;138270;-41
2022/02/27 15:05:04;;;;;;;;;;;10.80;91.40;;;9.22;48.61;102640.25;2570294;30;138888;-41
2022/02/27 15:07:32;;;;;;;;;;;10.70;89.20;;;9.22;48.38;102640.25;2569891;30;137173;-41
2022/02/27 15:09:59;;;;;;;;;;;10.80;89.40;;;9.13;49.18;102641.22;2567421;30;137378;-41
2022/02/27 15:12:27;;;;;;;;;;;10.70;90.20;;;9.13;48.71;102646.66;2569657;30;136753;-41
2022/02/27 15:14:54;;;;;;;;;;;10.60;89.80;;;9.03;49.85;102628.56;2567565;30;139272;-41
2022/02/27 15:17:22;;;;;;;;;;;10.70;90.50;;;9.05;49.04;102642.00;2569972;30;137744;-41
2022/02/27 15:19:50;;;;;;;;;;;10.60;89.80;;;9.00;48.09;102642.47;2570805;30;139029;-42
2022/02/27 15:22:17;;;;;;;;;;;10.50;88.20;;;8.95;47.79;102644.81;2569109;30;136897;-41
2022/02/27 15:24:44;;;;;;;;;;;10.50;88.30;;;8.86;49.24;102634.88;2570149;30;137904;-41
2022/02/27 15:27:12;;;;;;;;;;;10.40;89.90;;;8.82;47.72;102638.91;2567695;30;137443;-41
2022/02/27 15:29:39;;;;;;;;;;;10.40;87.70;;;8.69;47.82;102642.88;2570268;30;138200;-41
2022/02/27 15:32:07;;;;;;;;;;;10.30;87.30;;;8.62;48.10;102641.78;2569822;30;137184;-40
2022/02/27 15:34:34;;;;;;;;;;;10.20;87.90;;;8.58;47.70;102627.63;2568496;30;138265;-41
2022/02/27 15:37:03;;;;;;;;;;;10.20;87.20;;;8.46;48.13;102637.84;2567261;30;137569;-41
2022/02/27 15:39:35;;;;;;;;;;;10.10;87.70;;;8.32;48.83;102636.50;2570699;30;139322;-40
2022/02/27 15:42:05;;;;;;;;;;;10.00;88.30;;;8.21;47.87;102631.31;2567179;30;137231;-41
2022/02/27 15:44:33;;;;;;;;;;;9.90;87.30;;;8.14;49.84;102630.22;2569909;30;137093;-41
2022/02/27 15:47:04;;;;;;;;;;;9.80;90.00;;;8.12;48.93;102624.06;2567894;30;137816;-41
2022/02/27 15:49:34;;;;;;;;;;;9.70;88.80;;;8.05;49.26;102626.53;2569005;30;138132;-41
2022/02/27 15:52:02;;;;;;;;;;;9.70;89.50;;;8.01;49.09;102625.13;2569854;30;137964;-41
2022/02/27 15:54:31;;;;;;;;;;;9.60;89.20;;;7.95;49.53;102620.28;2569836;30;138290;-41
2022/02/27 15:56:58;;;;;;;;;;;9.50;89.90;;;7.90;50.77;102629.75;2569170;30;137129;-41
2022/02/27 15:59:26;;;;;;;;;;;9.50;90.50;;;7.84;51.03;102616.75;2569491;30;139191;-40
2022/02/27 16:01:54;;;;;;;;;;;9.50;90.70;;;7.73;51.52;102638.69;2570431;30;138304;-41
2022/02/27 16:04:22;;;;;;;;;;;9.40;90.90;;;7.65;51.64;102625.84;2570078;30;138989;-41
2022/02/27 16:06:50;;;;;;;;;;;9.30;91.10;;;7.62;52.91;102627.00;2569884;30;137146;-40
2022/02/27 16:09:17;;;;;;;;;;;9.20;91.90;;;7.51;52.75;102624.47;2569664;30;137875;-41
2022/02/27 16:11:45;;;;;;;;;;;9.20;92.00;;;7.49;53.75;102627.31;2570456;30;137779;-40
2022/02/27 16:14:13;;;;;;;;;;;9.20;92.40;;;7.44;52.62;102624.19;2567219;30;138431;-40
2022/02/27 16:16:41;;;;;;;;;;;9.10;91.90;;;7.38;52.78;102624.81;2570339;30;137398;-40
2022/02/27 16:19:09;;;;;;;;;;;9.00;91.80;;;7.33;53.77;102629.81;2571447;30;137025;-41
2022/02/27 16:21:39;;;;;;;;;;;9.00;92.50;;;7.24;53.75;102617.97;2569958;30;138461;-40
2022/02/27 16:24:07;;;;;;;;;;;8.90;92.40;;;7.16;54.56;102625.97;2572422;30;138501;-40
2022/02/27 16:26:34;;;;;;;;;;;8.80;92.80;;;7.07;54.12;102625.00;2568247;30;137752;-40
2022/02/27 16:29:02;;;;;;;;;;;8.70;92.80;;;6.92;54.94;102624.59;2568904;30;138116;-41
2022/02/27 16:31:30;;;;;;;;;;;8.60;93.20;;;6.84;55.71;102629.88;2569670;30;137667;-41
2022/02/27 16:33:58;;;;;;;;;;;8.50;93.50;;;6.76;56.80;102615.16;2570594;30;137376;-41
2022/02/27 16:36:26;;;;;;;;;;;8.40;94.30;;;6.68;57.42;102634.03;2570392;30;136884;-41
2022/02/27 16:38:54;;;;;;;;;;;8.40;94.80;;;6.63;56.84;102622.75;2569073;30;138187;-41
2022/02/27 16:41:21;;;;;;;;;;;8.30;94.50;;;6.56;56.45;102627.00;2568219;30;137098;-41
2022/02/27 16:43:49;;;;;;;;;;;8.20;94.30;;;6.50;56.72;102631.16;2569644;30;138393;-41
2022/02/27 16:46:19;;;;;;;;;;;8.20;94.60;;;6.46;57.21;102635.13;2569998;30;137842;-41
2022/02/27 16:48:48;;;;;;;;;;;8.10;94.80;;;6.37;56.94;102642.28;2569628;30;138299;-40
2022/02/27 16:51:16;;;;;;;;;;;8.00;94.60;;;6.43;56.33;102639.00;2569460;30;137932;-41
2022/02/27 16:53:47;;;;;;;;;;;8.00;94.40;;;6.42;57.98;102641.84;2568261;30;138392;-41
2022/02/27 16:56:21;;;;;;;;;;;8.00;95.40;;;6.27;57.09;102642.25;2570626;30;137105;-41
2022/02/27 16:58:49;;;;;;;;;;;7.90;94.80;;;6.20;57.22;102638.38;2568811;30;139230;-40
2022/02/27 17:01:17;;;;;;;;;;;7.90;94.90;;;6.14;56.87;102645.22;2568743;30;137708;-41
2022/02/27 17:03:45;;;;;;;;;;;7.80;94.80;;;6.04;56.61;102647.91;2567789;30;138880;-41
2022/02/27 17:06:12;;;;;;;;;;;7.70;94.60;;;6.06;57.33;102645.03;2570168;30;137151;-40
2022/02/27 17:08:40;;;;;;;;;;;7.70;95.10;;;5.92;57.26;102650.81;2570505;30;137797;-40
2022/02/27 17:11:07;;;;;;;;;;;7.60;95.00;;;5.84;58.44;102662.31;2569487;30;137078;-41
2022/02/27 17:13:35;;;;;;;;;;;7.50;95.70;;;5.80;58.25;102644.63;2568781;30;138132;-41
2022/02/27 17:16:03;;;;;;;;;;;7.50;95.60;;;5.65;59.10;102647.69;2569689;30;136722;-41
2022/02/27 17:18:31;;;;;;;;;;;7.40;95.90;;;5.53;59.81;102651.50;2566682;30;139232;-41
2022/02/27 17:20:59;;;;;;;;;;;7.30;96.40;;;5.61;58.40;102657.97;2568516;30;137109;-41
2022/02/27 17:23:26;;;;;;;;;;;7.30;95.70;;;5.46;59.72;102657.44;2568342;30;138097;-41
2022/02/27 17:25:54;;;;;;;;;;;7.20;96.60;;;5.41;59.93;102658.84;2569106;30;137760;-41